sensor_id;sensor_type;location;lat;lon;timestamp;pressure;altitude;pressure_sealevel;temperature;humidity
69411;BME280;56604;48.652;9.194;2023-04-01T00:01:04;94968.75;;;7.36;90.59
69411;BME280;56604;48.652;9.194;2023-04-01T00:03:31;94958.06;;;7.43;90.65
69411;BME280;56604;48.652;9.194;2023-04-01T00:05:58;94963.28;;;7.38;90.56
69411;BME280;56604;48.652;9.194;2023-04-01T00:08:25;94968.22;;;7.39;91.21
69411;BME280;56604;48.652;9.194;2023-04-01T00:10:51;94965.88;;;7.38;91.23
69411;BME280;56604;48.652;9.194;2023-04-01T00:13:16;94967.19;;;7.30;91.22
69411;BME280;56604;48.652;9.194;2023-04-01T00:15:43;94963.25;;;7.33;91.33
69411;BME280;56604;48.652;9.194;2023-04-01T00:18:08;94959.59;;;7.34;91.75
69411;BME280;56604;48.652;9.194;2023-04-01T00:20:33;94956.72;;;7.35;92.14
69411;BME280;56604;48.652;9.194;2023-04-01T00:22:59;94954.88;;;7.31;91.82
69411;BME280;56604;48.652;9.194;2023-04-01T00:25:24;94958.81;;;7.23;91.47
69411;BME280;56604;48.652;9.194;2023-04-01T00:27:50;94952.78;;;7.17;91.92
69411;BME280;56604;48.652;9.194;2023-04-01T00:30:16;94950.44;;;7.21;92.15
69411;BME280;56604;48.652;9.194;2023-04-01T00:32:41;94950.69;;;7.25;91.47
69411;BME280;56604;48.652;9.194;2023-04-01T00:35:07;94957.50;;;7.20;91.00
69411;BME280;56604;48.652;9.194;2023-04-01T00:37:34;94953.59;;;7.23;92.01
69411;BME280;56604;48.652;9.194;2023-04-01T00:40:00;94951.78;;;7.29;91.81
69411;BME280;56604;48.652;9.194;2023-04-01T00:42:25;94944.44;;;7.31;91.59
69411;BME280;56604;48.652;9.194;2023-04-01T00:44:52;94950.47;;;7.41;90.94
69411;BME280;56604;48.652;9.194;2023-04-01T00:47:18;94951.22;;;7.37;91.35
69411;BME280;56604;48.652;9.194;2023-04-01T00:49:46;94956.47;;;7.42;89.96
69411;BME280;56604;48.652;9.194;2023-04-01T00:52:14;94954.38;;;7.44;90.72
69411;BME280;56604;48.652;9.194;2023-04-01T00:54:42;94946.00;;;7.42;90.27
69411;BME280;56604;48.652;9.194;2023-04-01T00:57:15;94950.72;;;7.50;89.73
69411;BME280;56604;48.652;9.194;2023-04-01T00:59:46;94957.53;;;7.46;89.66
69411;BME280;56604;48.652;9.194;2023-04-01T01:02:14;94956.47;;;7.47;89.39
69411;BME280;56604;48.652;9.194;2023-04-01T01:04:41;94947.31;;;7.44;89.51
69411;BME280;56604;48.652;9.194;2023-04-01T01:12:25;94954.38;;;7.34;89.30
69411;BME280;56604;48.652;9.194;2023-04-01T01:20:57;94953.88;;;7.47;89.52
69411;BME280;56604;48.652;9.194;2023-04-01T01:31:45;94953.34;;;7.40;89.37
69411;BME280;56604;48.652;9.194;2023-04-01T01:37:26;94956.72;;;7.46;88.81
69411;BME280;56604;48.652;9.194;2023-04-01T01:39:58;94961.47;;;7.49;88.94
69411;BME280;56604;48.652;9.194;2023-04-01T01:42:26;94957.50;;;7.51;89.21
69411;BME280;56604;48.652;9.194;2023-04-01T01:44:55;94954.91;;;7.51;88.98
69411;BME280;56604;48.652;9.194;2023-04-01T01:47:23;94948.63;;;7.42;89.34
69411;BME280;56604;48.652;9.194;2023-04-01T01:49:50;94951.50;;;7.46;88.72
69411;BME280;56604;48.652;9.194;2023-04-01T01:52:16;94957.53;;;7.46;89.63
69411;BME280;56604;48.652;9.194;2023-04-01T01:54:54;94953.59;;;7.33;89.35
69411;BME280;56604;48.652;9.194;2023-04-01T01:57:23;94955.41;;;7.22;89.99
69411;BME280;56604;48.652;9.194;2023-04-01T01:59:52;94952.53;;;7.24;90.08
69411;BME280;56604;48.652;9.194;2023-04-01T02:02:21;94955.41;;;7.28;89.20
69411;BME280;56604;48.652;9.194;2023-04-01T02:04:49;94950.72;;;7.30;88.25
69411;BME280;56604;48.652;9.194;2023-04-01T02:07:21;94951.78;;;7.29;88.37
69411;BME280;56604;48.652;9.194;2023-04-01T02:09:48;94955.41;;;7.22;88.31
69411;BME280;56604;48.652;9.194;2023-04-01T02:12:16;94948.06;;;7.19;88.06
69411;BME280;56604;48.652;9.194;2023-04-01T02:14:47;94949.16;;;7.24;88.15
69411;BME280;56604;48.652;9.194;2023-04-01T02:17:18;94940.25;;;7.25;88.08
69411;BME280;56604;48.652;9.194;2023-04-01T02:19:51;94946.81;;;7.32;86.75
69411;BME280;56604;48.652;9.194;2023-04-01T02:22:20;94959.59;;;7.34;87.15
69411;BME280;56604;48.652;9.194;2023-04-01T02:24:47;94955.16;;;7.29;86.91
69411;BME280;56604;48.652;9.194;2023-04-01T02:27:14;94958.28;;;7.26;87.39
69411;BME280;56604;48.652;9.194;2023-04-01T02:29:40;94957.00;;;7.29;86.56
69411;BME280;56604;48.652;9.194;2023-04-01T02:32:06;94953.84;;;7.21;86.30
69411;BME280;56604;48.652;9.194;2023-04-01T02:34:33;94960.13;;;7.20;86.65
69411;BME280;56604;48.652;9.194;2023-04-01T02:36:58;94954.88;;;7.31;86.17
69411;BME280;56604;48.652;9.194;2023-04-01T02:39:23;94954.88;;;7.31;86.47
69411;BME280;56604;48.652;9.194;2023-04-01T02:41:50;94965.34;;;7.31;85.72
69411;BME280;56604;48.652;9.194;2023-04-01T02:44:16;94965.09;;;7.27;86.27
69411;BME280;56604;48.652;9.194;2023-04-01T02:46:41;94958.81;;;7.23;85.79
69411;BME280;56604;48.652;9.194;2023-04-01T02:49:07;94958.00;;;7.22;86.01
69411;BME280;56604;48.652;9.194;2023-04-01T02:51:33;94948.88;;;7.20;86.50
69411;BME280;56604;48.652;9.194;2023-04-01T02:53:58;94960.34;;;7.14;85.95
69411;BME280;56604;48.652;9.194;2023-04-01T02:56:23;94953.28;;;7.04;86.49
69411;BME280;56604;48.652;9.194;2023-04-01T02:58:49;94947.78;;;7.01;87.01
69411;BME280;56604;48.652;9.194;2023-04-01T03:01:14;94948.28;;;6.92;86.97
69411;BME280;56604;48.652;9.194;2023-04-01T03:03:40;94957.44;;;6.95;86.45
69411;BME280;56604;48.652;9.194;2023-04-01T03:06:07;94954.06;;;6.94;86.30
69411;BME280;56604;48.652;9.194;2023-04-01T03:08:33;94950.13;;;6.92;86.41
69411;BME280;56604;48.652;9.194;2023-04-01T03:10:58;94953.72;;;6.75;87.02
69411;BME280;56604;48.652;9.194;2023-04-01T03:13:24;94957.34;;;6.64;87.29
69411;BME280;56604;48.652;9.194;2023-04-01T03:15:49;94955.78;;;6.63;88.27
69411;BME280;56604;48.652;9.194;2023-04-01T03:18:14;94952.13;;;6.64;87.95
69411;BME280;56604;48.652;9.194;2023-04-01T03:20:40;94955.25;;;6.71;87.54
69411;BME280;56604;48.652;9.194;2023-04-01T03:23:05;94956.88;;;6.78;87.45
69411;BME280;56604;48.652;9.194;2023-04-01T03:25:30;94957.41;;;6.74;87.27
69411;BME280;56604;48.652;9.194;2023-04-01T03:27:56;94963.63;;;6.68;87.71
69411;BME280;56604;48.652;9.194;2023-04-01T03:30:21;94963.09;;;6.71;87.08
69411;BME280;56604;48.652;9.194;2023-04-01T03:32:46;94967.28;;;6.67;87.06
69411;BME280;56604;48.652;9.194;2023-04-01T03:35:12;94960.75;;;6.70;87.59
69411;BME280;56604;48.652;9.194;2023-04-01T03:37:37;94968.31;;;6.71;87.54
69411;BME280;56604;48.652;9.194;2023-04-01T03:40:03;94972.50;;;6.67;87.01
69411;BME280;56604;48.652;9.194;2023-04-01T03:42:30;94961.78;;;6.64;87.50
69411;BME280;56604;48.652;9.194;2023-04-01T03:44:56;94970.94;;;6.66;87.32
69411;BME280;56604;48.652;9.194;2023-04-01T03:47:21;94967.31;;;6.72;86.95
69411;BME280;56604;48.652;9.194;2023-04-01T03:49:47;94968.84;;;6.73;86.41
69411;BME280;56604;48.652;9.194;2023-04-01T03:52:12;94974.88;;;6.69;86.54
69411;BME280;56604;48.652;9.194;2023-04-01T03:54:37;94966.50;;;6.67;86.70
69411;BME280;56604;48.652;9.194;2023-04-01T03:57:03;94962.06;;;6.67;86.33
69411;BME280;56604;48.652;9.194;2023-04-01T03:59:28;94966.25;;;6.73;86.18
69411;BME280;56604;48.652;9.194;2023-04-01T04:01:53;94964.97;;;6.76;85.67
69411;BME280;56604;48.652;9.194;2023-04-01T04:04:18;94964.19;;;6.75;85.59
69411;BME280;56604;48.652;9.194;2023-04-01T04:06:44;94956.31;;;6.70;86.07
69411;BME280;56604;48.652;9.194;2023-04-01T04:09:09;94938.00;;;6.65;86.19
69411;BME280;56604;48.652;9.194;2023-04-01T04:11:34;94947.34;;;6.41;86.74
69411;BME280;56604;48.652;9.194;2023-04-01T04:14:00;94946.75;;;6.34;87.13
69411;BME280;56604;48.652;9.194;2023-04-01T04:16:25;94944.69;;;6.36;87.31
69411;BME280;56604;48.652;9.194;2023-04-01T04:18:51;94946.72;;;6.28;87.42
69411;BME280;56604;48.652;9.194;2023-04-01T04:21:16;94944.34;;;6.22;88.04
69411;BME280;56604;48.652;9.194;2023-04-01T04:23:43;94938.63;;;6.25;87.93
69411;BME280;56604;48.652;9.194;2023-04-01T04:26:12;94929.50;;;6.27;88.09
69411;BME280;56604;48.652;9.194;2023-04-01T04:28:38;94932.88;;;6.23;88.62
69411;BME280;56604;48.652;9.194;2023-04-01T04:31:04;94933.16;;;6.21;88.32
69411;BME280;56604;48.652;9.194;2023-04-01T04:33:33;94931.56;;;6.20;88.99
69411;BME280;56604;48.652;9.194;2023-04-01T04:35:59;94931.81;;;6.19;88.60
69411;BME280;56604;48.652;9.194;2023-04-01T04:38:25;94936.22;;;6.13;88.93
69411;BME280;56604;48.652;9.194;2023-04-01T04:40:51;94924.22;;;6.12;89.49
69411;BME280;56604;48.652;9.194;2023-04-01T04:43:17;94931.00;;;6.13;89.26
69411;BME280;56604;48.652;9.194;2023-04-01T04:45:43;94929.44;;;6.17;89.18
69411;BME280;56604;48.652;9.194;2023-04-01T04:48:10;94929.47;;;6.22;89.53
69411;BME280;56604;48.652;9.194;2023-04-01T04:50:37;94928.19;;;6.25;88.95
69411;BME280;56604;48.652;9.194;2023-04-01T04:53:03;94922.22;;;6.29;89.07
69411;BME280;56604;48.652;9.194;2023-04-01T04:55:28;94923.03;;;6.40;88.83
69411;BME280;56604;48.652;9.194;2023-04-01T04:57:53;94922.84;;;6.52;88.06
69411;BME280;56604;48.652;9.194;2023-04-01T05:00:19;94922.84;;;6.57;87.83
69411;BME280;56604;48.652;9.194;2023-04-01T05:02:44;94921.84;;;6.63;87.83
69411;BME280;56604;48.652;9.194;2023-04-01T05:05:09;94921.84;;;6.68;87.30
69411;BME280;56604;48.652;9.194;2023-04-01T05:07:35;94925.25;;;6.74;87.25
69411;BME280;56604;48.652;9.194;2023-04-01T05:10:01;94929.69;;;6.73;87.05
69411;BME280;56604;48.652;9.194;2023-04-01T05:12:26;94925.03;;;6.81;86.88
69411;BME280;56604;48.652;9.194;2023-04-01T05:14:51;94928.94;;;6.88;87.45
69411;BME280;56604;48.652;9.194;2023-04-01T05:17:17;94921.41;;;6.92;86.85
69411;BME280;56604;48.652;9.194;2023-04-01T05:19:42;94921.91;;;6.94;86.61
69411;BME280;56604;48.652;9.194;2023-04-01T05:22:07;94909.34;;;6.91;86.72
69411;BME280;56604;48.652;9.194;2023-04-01T05:24:33;94906.78;;;7.01;85.64
69411;BME280;56604;48.652;9.194;2023-04-01T05:26:59;94906.78;;;7.01;85.98
69411;BME280;56604;48.652;9.194;2023-04-01T05:29:25;94897.63;;;7.14;84.82
69411;BME280;56604;48.652;9.194;2023-04-01T05:31:51;94890.59;;;7.09;84.26
69411;BME280;56604;48.652;9.194;2023-04-01T05:34:16;94895.81;;;7.19;83.62
69411;BME280;56604;48.652;9.194;2023-04-01T05:36:42;94897.66;;;7.34;82.87
69411;BME280;56604;48.652;9.194;2023-04-01T05:39:08;94891.38;;;7.40;82.72
69411;BME280;56604;48.652;9.194;2023-04-01T05:41:37;94890.06;;;7.58;81.10
69411;BME280;56604;48.652;9.194;2023-04-01T05:44:03;94896.03;;;7.95;80.19
69411;BME280;56604;48.652;9.194;2023-04-01T05:46:28;94894.91;;;8.11;78.56
69411;BME280;56604;48.652;9.194;2023-04-01T05:48:54;94888.91;;;8.16;78.72
69411;BME280;56604;48.652;9.194;2023-04-01T05:51:19;94902.03;;;7.95;78.74
69411;BME280;56604;48.652;9.194;2023-04-01T05:53:45;94895.75;;;8.06;78.28
69411;BME280;56604;48.652;9.194;2023-04-01T05:56:10;94893.88;;;8.17;78.02
69411;BME280;56604;48.652;9.194;2023-04-01T05:58:37;94893.28;;;8.41;76.83
69411;BME280;56604;48.652;9.194;2023-04-01T06:01:07;94895.97;;;9.24;75.06
69411;BME280;56604;48.652;9.194;2023-04-01T06:03:33;94884.63;;;9.34;73.65
69411;BME280;56604;48.652;9.194;2023-04-01T06:05:59;94877.19;;;9.46;73.04
69411;BME280;56604;48.652;9.194;2023-04-01T06:08:27;94880.16;;;9.35;74.79
69411;BME280;56604;48.652;9.194;2023-04-01T06:15:56;94870.53;;;8.91;74.40
69411;BME280;56604;48.652;9.194;2023-04-01T06:26:37;94866.97;;;9.11;74.02
69411;BME280;56604;48.652;9.194;2023-04-01T06:29:26;94857.63;;;9.34;73.30
69411;BME280;56604;48.652;9.194;2023-04-01T06:37:33;94873.84;;;9.01;72.92
69411;BME280;56604;48.652;9.194;2023-04-01T06:51:00;94880.31;;;8.70;76.02
69411;BME280;56604;48.652;9.194;2023-04-01T06:53:54;94876.38;;;8.72;75.25
69411;BME280;56604;48.652;9.194;2023-04-01T06:56:24;94871.72;;;8.59;76.13
69411;BME280;56604;48.652;9.194;2023-04-01T07:01:31;94867.19;;;8.75;75.78
69411;BME280;56604;48.652;9.194;2023-04-01T07:04:06;94871.03;;;8.88;74.99
69411;BME280;56604;48.652;9.194;2023-04-01T07:06:42;94869.25;;;8.83;74.94
69411;BME280;56604;48.652;9.194;2023-04-01T07:09:13;94862.72;;;8.81;75.30
69411;BME280;56604;48.652;9.194;2023-04-01T07:11:40;94866.13;;;8.76;75.90
69411;BME280;56604;48.652;9.194;2023-04-01T07:14:34;94872.91;;;8.82;74.94
69411;BME280;56604;48.652;9.194;2023-04-01T07:17:39;94876.25;;;8.93;74.92
69411;BME280;56604;48.652;9.194;2023-04-01T07:20:20;94873.94;;;8.86;75.39
69411;BME280;56604;48.652;9.194;2023-04-01T07:22:54;94878.00;;;8.68;75.31
69411;BME280;56604;48.652;9.194;2023-04-01T07:25:27;94874.75;;;8.82;76.00
69411;BME280;56604;48.652;9.194;2023-04-01T07:28:02;94881.25;;;8.94;75.54
69411;BME280;56604;48.652;9.194;2023-04-01T07:30:33;94879.72;;;8.83;75.34
69411;BME280;56604;48.652;9.194;2023-04-01T07:33:20;94883.38;;;8.82;75.40
69411;BME280;56604;48.652;9.194;2023-04-01T07:35:57;94889.16;;;8.79;76.07
69411;BME280;56604;48.652;9.194;2023-04-01T07:42:07;94882.34;;;8.88;75.80
69411;BME280;56604;48.652;9.194;2023-04-01T07:45:20;94899.34;;;8.91;76.30
69411;BME280;56604;48.652;9.194;2023-04-01T07:47:38;94892.81;;;8.88;76.92
69411;BME280;56604;48.652;9.194;2023-04-01T08:00:44;94900.19;;;9.20;76.21
69411;BME280;56604;48.652;9.194;2023-04-01T08:06:00;94894.72;;;9.17;76.35
69411;BME280;56604;48.652;9.194;2023-04-01T08:11:50;94891.91;;;9.42;76.52
69411;BME280;56604;48.652;9.194;2023-04-01T08:22:35;94901.47;;;9.28;78.66
69411;BME280;56604;48.652;9.194;2023-04-01T08:25:04;94904.72;;;9.10;78.98
69411;BME280;56604;48.652;9.194;2023-04-01T08:28:24;94905.66;;;9.29;78.85
69411;BME280;56604;48.652;9.194;2023-04-01T08:31:00;94901.41;;;9.33;78.83
69411;BME280;56604;48.652;9.194;2023-04-01T08:33:31;94916.66;;;9.31;78.10
69411;BME280;56604;48.652;9.194;2023-04-01T08:38:41;94918.22;;;9.32;78.77
69411;BME280;56604;48.652;9.194;2023-04-01T08:41:29;94916.28;;;9.48;78.21
69411;BME280;56604;48.652;9.194;2023-04-01T08:47:03;94919.53;;;9.30;79.12
69411;BME280;56604;48.652;9.194;2023-04-01T08:49:36;94925.22;;;9.03;81.24
69411;BME280;56604;48.652;9.194;2023-04-01T08:55:19;94928.97;;;8.91;80.94
69411;BME280;56604;48.652;9.194;2023-04-01T09:00:52;94918.22;;;8.88;81.86
69411;BME280;56604;48.652;9.194;2023-04-01T09:14:53;94924.13;;;9.09;81.67
69411;BME280;56604;48.652;9.194;2023-04-01T09:20:32;94925.34;;;9.61;79.86
69411;BME280;56604;48.652;9.194;2023-04-01T09:26:40;94918.50;;;10.18;76.61
69411;BME280;56604;48.652;9.194;2023-04-01T09:29:23;94929.00;;;10.18;75.78
69411;BME280;56604;48.652;9.194;2023-04-01T09:32:33;94916.25;;;10.06;76.28
69411;BME280;56604;48.652;9.194;2023-04-01T09:40:55;94930.41;;;10.40;75.26
69411;BME280;56604;48.652;9.194;2023-04-01T09:49:21;94938.84;;;9.78;77.23
69411;BME280;56604;48.652;9.194;2023-04-01T10:11:57;94928.44;;;9.68;79.26
69411;BME280;56604;48.652;9.194;2023-04-01T10:14:37;94951.19;;;9.43;79.95
69411;BME280;56604;48.652;9.194;2023-04-01T10:17:53;94957.91;;;9.55;80.28
69411;BME280;56604;48.652;9.194;2023-04-01T10:23:17;94949.88;;;9.41;78.78
69411;BME280;56604;48.652;9.194;2023-04-01T10:30:53;94952.16;;;9.53;77.92
69411;BME280;56604;48.652;9.194;2023-04-01T10:36:18;94964.72;;;9.90;77.27
69411;BME280;56604;48.652;9.194;2023-04-01T10:42:27;94964.31;;;10.07;75.64
69411;BME280;56604;48.652;9.194;2023-04-01T10:54:03;94958.38;;;11.54;70.98
69411;BME280;56604;48.652;9.194;2023-04-01T10:57:00;94959.91;;;10.79;71.58
69411;BME280;56604;48.652;9.194;2023-04-01T11:23:01;94978.84;;;11.19;69.76
69411;BME280;56604;48.652;9.194;2023-04-01T11:25:59;94972.16;;;11.08;69.70
69411;BME280;56604;48.652;9.194;2023-04-01T11:37:23;94979.13;;;10.99;69.25
69411;BME280;56604;48.652;9.194;2023-04-01T11:42:43;94980.41;;;10.77;70.70
69411;BME280;56604;48.652;9.194;2023-04-01T11:45:32;94991.09;;;11.10;69.82
69411;BME280;56604;48.652;9.194;2023-04-01T11:48:13;94981.63;;;11.28;69.58
69411;BME280;56604;48.652;9.194;2023-04-01T12:02:28;94979.78;;;11.29;69.37
69411;BME280;56604;48.652;9.194;2023-04-01T12:10:41;94998.06;;;11.39;69.31
69411;BME280;56604;48.652;9.194;2023-04-01T12:18:16;94992.72;;;11.63;67.44
69411;BME280;56604;48.652;9.194;2023-04-01T12:23:44;94997.72;;;11.64;65.62
69411;BME280;56604;48.652;9.194;2023-04-01T12:29:14;95001.19;;;12.11;65.97
69411;BME280;56604;48.652;9.194;2023-04-01T12:37:57;94997.66;;;11.83;67.14
69411;BME280;56604;48.652;9.194;2023-04-01T12:46:54;95010.28;;;11.30;69.74
69411;BME280;56604;48.652;9.194;2023-04-01T12:52:12;95019.13;;;10.96;70.71
69411;BME280;56604;48.652;9.194;2023-04-01T12:55:02;95023.06;;;11.17;70.41
69411;BME280;56604;48.652;9.194;2023-04-01T13:01:02;95015.56;;;11.86;66.04
69411;BME280;56604;48.652;9.194;2023-04-01T13:17:10;95020.66;;;11.78;65.72
69411;BME280;56604;48.652;9.194;2023-04-01T13:19:58;95021.97;;;11.61;66.14
69411;BME280;56604;48.652;9.194;2023-04-01T13:22:48;95027.38;;;11.89;65.90
69411;BME280;56604;48.652;9.194;2023-04-01T13:25:26;95027.94;;;11.86;64.42
69411;BME280;56604;48.652;9.194;2023-04-01T13:28:06;95030.38;;;12.15;63.80
69411;BME280;56604;48.652;9.194;2023-04-01T13:33:27;95030.19;;;12.11;64.28
69411;BME280;56604;48.652;9.194;2023-04-01T13:44:38;95035.06;;;12.04;64.50
69411;BME280;56604;48.652;9.194;2023-04-01T13:50:07;95039.97;;;11.92;65.32
69411;BME280;56604;48.652;9.194;2023-04-01T13:52:50;95043.22;;;12.03;65.49
69411;BME280;56604;48.652;9.194;2023-04-01T13:58:11;95051.53;;;11.72;65.43
69411;BME280;56604;48.652;9.194;2023-04-01T14:06:38;95053.94;;;11.31;67.12
69411;BME280;56604;48.652;9.194;2023-04-01T14:09:49;95062.00;;;11.39;67.29
69411;BME280;56604;48.652;9.194;2023-04-01T14:15:38;95050.84;;;11.47;67.04
69411;BME280;56604;48.652;9.194;2023-04-01T14:18:18;95053.38;;;11.34;66.29
69411;BME280;56604;48.652;9.194;2023-04-01T14:21:13;95046.63;;;11.46;65.77
69411;BME280;56604;48.652;9.194;2023-04-01T14:26:50;95054.53;;;11.65;66.19
69411;BME280;56604;48.652;9.194;2023-04-01T14:29:37;95054.16;;;11.34;67.90
69411;BME280;56604;48.652;9.194;2023-04-01T14:37:55;95060.56;;;11.04;70.31
69411;BME280;56604;48.652;9.194;2023-04-01T14:40:33;95066.00;;;10.89;70.84
69411;BME280;56604;48.652;9.194;2023-04-01T14:46:49;95060.69;;;10.94;69.60
69411;BME280;56604;48.652;9.194;2023-04-01T14:49:51;95066.06;;;10.84;69.24
69411;BME280;56604;48.652;9.194;2023-04-01T14:54:46;95064.72;;;10.86;68.66
69411;BME280;56604;48.652;9.194;2023-04-01T14:57:16;95066.94;;;10.98;68.04
69411;BME280;56604;48.652;9.194;2023-04-01T14:59:54;95061.81;;;10.88;67.52
69411;BME280;56604;48.652;9.194;2023-04-01T15:06:00;95065.75;;;10.90;67.28
69411;BME280;56604;48.652;9.194;2023-04-01T15:08:10;95064.19;;;10.84;66.75
69411;BME280;56604;48.652;9.194;2023-04-01T15:11:13;95068.84;;;10.92;66.90
69411;BME280;56604;48.652;9.194;2023-04-01T15:19:20;95077.81;;;10.91;67.85
69411;BME280;56604;48.652;9.194;2023-04-01T15:24:23;95080.03;;;11.03;67.59
69411;BME280;56604;48.652;9.194;2023-04-01T15:32:19;95091.34;;;10.79;68.24
69411;BME280;56604;48.652;9.194;2023-04-01T15:40:41;95099.78;;;10.76;69.67
69411;BME280;56604;48.652;9.194;2023-04-01T15:51:32;95101.53;;;10.57;70.66
69411;BME280;56604;48.652;9.194;2023-04-01T15:56:56;95107.84;;;10.22;71.35
69411;BME280;56604;48.652;9.194;2023-04-01T16:02:33;95114.09;;;10.31;73.20
69411;BME280;56604;48.652;9.194;2023-04-01T16:07:57;95128.13;;;10.11;75.26
69411;BME280;56604;48.652;9.194;2023-04-01T16:13:38;95138.78;;;9.90;77.29
69411;BME280;56604;48.652;9.194;2023-04-01T16:18:57;95130.44;;;10.18;76.25
69411;BME280;56604;48.652;9.194;2023-04-01T16:21:48;95127.66;;;10.04;76.71
69411;BME280;56604;48.652;9.194;2023-04-01T16:24:34;95118.75;;;10.00;77.47
69411;BME280;56604;48.652;9.194;2023-04-01T16:27:27;95119.50;;;10.05;76.51
69411;BME280;56604;48.652;9.194;2023-04-01T16:30:03;95125.31;;;10.02;77.60
69411;BME280;56604;48.652;9.194;2023-04-01T16:33:10;95128.69;;;10.08;77.05
69411;BME280;56604;48.652;9.194;2023-04-01T16:38:47;95128.22;;;9.96;75.86
69411;BME280;56604;48.652;9.194;2023-04-01T16:41:18;95134.16;;;9.67;77.28
69411;BME280;56604;48.652;9.194;2023-04-01T16:46:38;95122.63;;;9.63;77.03
69411;BME280;56604;48.652;9.194;2023-04-01T16:54:44;95136.66;;;9.93;75.02
69411;BME280;56604;48.652;9.194;2023-04-01T16:57:43;95132.50;;;9.81;74.90
69411;BME280;56604;48.652;9.194;2023-04-01T17:11:09;95146.94;;;9.79;74.52
69411;BME280;56604;48.652;9.194;2023-04-01T17:14:03;95147.81;;;9.64;74.38
69411;BME280;56604;48.652;9.194;2023-04-01T17:20:04;95143.66;;;9.53;74.44
69411;BME280;56604;48.652;9.194;2023-04-01T17:23:01;95147.13;;;9.48;74.92
69411;BME280;56604;48.652;9.194;2023-04-01T17:25:37;95151.06;;;9.40;75.03
69411;BME280;56604;48.652;9.194;2023-04-01T17:31:05;95162.09;;;9.37;75.12
69411;BME280;56604;48.652;9.194;2023-04-01T17:33:48;95147.69;;;9.35;74.54
69411;BME280;56604;48.652;9.194;2023-04-01T17:36:45;95160.56;;;9.26;75.49
69411;BME280;56604;48.652;9.194;2023-04-01T17:39:42;95163.72;;;9.28;75.11
69411;BME280;56604;48.652;9.194;2023-04-01T17:42:20;95163.19;;;9.26;75.77
69411;BME280;56604;48.652;9.194;2023-04-01T17:50:23;95168.97;;;9.08;75.79
69411;BME280;56604;48.652;9.194;2023-04-01T17:58:59;95178.44;;;9.09;76.42
69411;BME280;56604;48.652;9.194;2023-04-01T18:01:39;95184.22;;;9.06;77.11
69411;BME280;56604;48.652;9.194;2023-04-01T18:10:16;95196.78;;;9.09;77.30
69411;BME280;56604;48.652;9.194;2023-04-01T18:13:12;95205.69;;;9.13;77.42
69411;BME280;56604;48.652;9.194;2023-04-01T18:15:56;95200.72;;;9.16;77.37
69411;BME280;56604;48.652;9.194;2023-04-01T18:19:00;95214.06;;;9.15;76.50
69411;BME280;56604;48.652;9.194;2023-04-01T18:21:29;95220.88;;;9.16;76.52
69411;BME280;56604;48.652;9.194;2023-04-01T18:24:11;95219.31;;;9.20;78.24
69411;BME280;56604;48.652;9.194;2023-04-01T18:26:42;95234.53;;;9.13;78.79
69411;BME280;56604;48.652;9.194;2023-04-01T18:29:32;95240.81;;;9.07;79.31
69411;BME280;56604;48.652;9.194;2023-04-01T18:32:17;95260.22;;;9.00;82.22
69411;BME280;56604;48.652;9.194;2023-04-01T18:35:16;95267.03;;;8.86;83.69
69411;BME280;56604;48.652;9.194;2023-04-01T18:37:53;95274.38;;;8.79;85.31
69411;BME280;56604;48.652;9.194;2023-04-01T18:40:46;95267.03;;;8.61;84.64
69411;BME280;56604;48.652;9.194;2023-04-01T18:43:32;95265.44;;;8.54;84.44
69411;BME280;56604;48.652;9.194;2023-04-01T18:51:49;95272.16;;;8.25;84.73
69411;BME280;56604;48.652;9.194;2023-04-01T18:54:31;95268.47;;;8.21;84.50
69411;BME280;56604;48.652;9.194;2023-04-01T18:57:24;95278.91;;;8.10;85.30
69411;BME280;56604;48.652;9.194;2023-04-01T18:59:55;95280.44;;;7.96;84.54
69411;BME280;56604;48.652;9.194;2023-04-01T19:02:31;95275.69;;;7.93;84.44
69411;BME280;56604;48.652;9.194;2023-04-01T19:05:12;95277.22;;;7.79;86.33
69411;BME280;56604;48.652;9.194;2023-04-01T19:07:47;95275.59;;;7.68;85.33
69411;BME280;56604;48.652;9.194;2023-04-01T19:10:23;95265.06;;;7.52;86.36
69411;BME280;56604;48.652;9.194;2023-04-01T19:13:10;95271.31;;;7.46;87.11
69411;BME280;56604;48.652;9.194;2023-04-01T19:15:46;95280.16;;;7.45;87.18
69411;BME280;56604;48.652;9.194;2023-04-01T19:21:07;95274.78;;;7.19;88.08
69411;BME280;56604;48.652;9.194;2023-04-01T19:24:20;95276.31;;;7.15;88.46
69411;BME280;56604;48.652;9.194;2023-04-01T19:34:48;95304.31;;;6.88;90.24
69411;BME280;56604;48.652;9.194;2023-04-01T19:39:58;95299.53;;;6.80;90.74
69411;BME280;56604;48.652;9.194;2023-04-01T19:45:34;95290.09;;;6.73;90.70
69411;BME280;56604;48.652;9.194;2023-04-01T19:53:29;95288.44;;;6.62;91.21
69411;BME280;56604;48.652;9.194;2023-04-01T19:58:50;95295.72;;;6.60;91.42
69411;BME280;56604;48.652;9.194;2023-04-01T20:03:55;95293.94;;;6.66;91.39
69411;BME280;56604;48.652;9.194;2023-04-01T20:06:33;95306.69;;;6.62;91.46
69411;BME280;56604;48.652;9.194;2023-04-01T20:09:23;95329.13;;;6.58;91.30
69411;BME280;56604;48.652;9.194;2023-04-01T20:14:57;95340.72;;;6.67;91.42
69411;BME280;56604;48.652;9.194;2023-04-01T20:17:27;95329.97;;;6.64;91.35
69411;BME280;56604;48.652;9.194;2023-04-01T20:25:26;95338.88;;;6.68;91.39
69411;BME280;56604;48.652;9.194;2023-04-01T20:28:04;95345.38;;;6.65;91.79
69411;BME280;56604;48.652;9.194;2023-04-01T20:43:52;95334.22;;;7.02;90.93
69411;BME280;56604;48.652;9.194;2023-04-01T20:46:30;95342.66;;;7.09;91.26
69411;BME280;56604;48.652;9.194;2023-04-01T21:02:53;95361.13;;;7.30;90.44
69411;BME280;56604;48.652;9.194;2023-04-01T21:11:30;95369.56;;;7.42;90.56
69411;BME280;56604;48.652;9.194;2023-04-01T21:14:31;95369.84;;;7.46;90.31
69411;BME280;56604;48.652;9.194;2023-04-01T21:20:22;95365.91;;;7.38;90.58
69411;BME280;56604;48.652;9.194;2023-04-01T21:34:43;95379.63;;;7.23;90.78
69411;BME280;56604;48.652;9.194;2023-04-01T21:42:30;95370.00;;;7.29;91.14
69411;BME280;56604;48.652;9.194;2023-04-01T21:45:33;95377.31;;;7.27;90.82
69411;BME280;56604;48.652;9.194;2023-04-01T21:50:41;95383.59;;;7.31;90.43
69411;BME280;56604;48.652;9.194;2023-04-01T22:04:49;95397.28;;;7.38;91.57
69411;BME280;56604;48.652;9.194;2023-04-01T22:07:20;95401.56;;;7.22;92.09
69411;BME280;56604;48.652;9.194;2023-04-01T22:12:46;95399.50;;;7.24;91.21